Senyomaru — JI3557 — position and weather

sailwx.info

Track history (hours):
 
Tides and Currents Weather Stations Pressure Air Temp Water Temp Dewpoint Dewpoint Depression Visibility Wind Speed Wind Dir Waves Ship Positions

Senyomaru

Last reported at 2017-Mar-27 15:29 UTC. Time now 2017-Mar-30 22:40 UTC.
Position N 33°50' E 132°16'.

Length 69 m; draft 4 m.

Type: Tanker. MMSI: 431300188.

Date/timePositionNaut miles runAvg speedWind from/ knotsBaromVisibWave heightAir tempDewpointWater temp
2017-Mar-27 15:29N 33°50' E 132°16'1213.0
2017-Mar-27 14:33N 33°52' E 132°30'12 0.5
2017-Mar-26 15:26N 33°58' E 132°43'910.8
2017-Mar-26 14:33N 33°53' E 132°34'  
2017-Mar-23 22:34N 33°50' E 132°20'1212.1
2017-Mar-23 21:34N 33°54' E 132°34'12111.0
2017-Mar-23 10:33N 34°35' E 134°52'1212.0
2017-Mar-23 09:33N 34°36' E 135°07'1312.4
2017-Mar-23 08:33N 34°34' E 135°22'1 0.9
2017-Mar-23 07:17N 34°34' E 135°23'0 0.0
2017-Mar-23 04:29N 34°34' E 135°23'0 0.0
2017-Mar-23 03:23N 34°34' E 135°23'0 0.0
2017-Mar-23 01:17N 34°34' E 135°23'0 0.0
2017-Mar-23 00:17N 34°34' E 135°23'0 0.0
2017-Mar-22 23:29N 34°34' E 135°23'0 0.0
2017-Mar-22 19:31N 34°34' E 135°23'1111.0
2017-Mar-22 18:33N 34°35' E 135°10'12711.5
2017-Mar-22 07:32N 33°58' E 132°44'1312.8
2017-Mar-22 06:33N 33°52' E 132°30'2611.6
2017-Mar-22 04:16N 33°49' E 131°59'21 0.4
2017-Mar-20 00:31N 33°51' E 132°24'1512.8
2017-Mar-19 23:21N 33°57' E 132°40'11711.8
2017-Mar-19 13:30N 34°36' E 134°53'1111.6
2017-Mar-19 12:33N 34°36' E 135°07'1212.1
2017-Mar-19 11:33N 34°34' E 135°21'4 0.5
2017-Mar-19 04:22N 34°33' E 135°26'1 0.4
2017-Mar-19 02:33N 34°33' E 135°25'2 1.8
2017-Mar-19 01:32N 34°34' E 135°23'0 0.0
2017-Mar-19 00:31N 34°34' E 135°23'0 0.0
2017-Mar-18 22:14N 34°34' E 135°23'0 0.1
2017-Mar-18 21:31N 34°34' E 135°23'0 0.0
2017-Mar-18 20:31N 34°34' E 135°23'0 0.0
2017-Mar-18 17:31N 34°34' E 135°23'0 0.1
2017-Mar-18 16:31N 34°34' E 135°23'0 0.0
2017-Mar-18 15:25N 34°34' E 135°23'0 0.0
2017-Mar-18 14:25N 34°34' E 135°23'0 0.0
2017-Mar-18 13:19N 34°34' E 135°23'0 0.0
2017-Mar-18 12:19N 34°34' E 135°23'0 0.0
2017-Mar-18 11:25N 34°34' E 135°23'0 0.0
2017-Mar-18 10:25N 34°34' E 135°23'0 0.0
2017-Mar-18 09:31N 34°34' E 135°23'0 0.0
2017-Mar-18 07:25N 34°34' E 135°23'0 0.0
2017-Mar-18 06:25N 34°34' E 135°23'0 0.0
2017-Mar-18 01:25N 34°34' E 135°23'0 0.0
2017-Mar-18 00:31N 34°34' E 135°23'0 0.1
2017-Mar-17 21:33N 34°34' E 135°23'1212.2
2017-Mar-17 20:33N 34°34' E 135°08'  
Track history (hours):
 
Tides and Currents Weather Stations Pressure Air Temp Water Temp Dewpoint Dewpoint Depression Visibility Wind Speed Wind Dir Waves Ship Positions

Senyomaru

Last reported at 2017-Mar-27 15:29 UTC. Time now 2017-Mar-30 22:40 UTC.
Position N 33°50' E 132°16'.

Length 69 m; draft 4 m.

Type: Tanker. MMSI: 431300188.

Date/timePositionNaut miles runAvg speedWind from/ knotsBaromVisibWave heightAir tempDewpointWater temp
2017-Mar-27 15:29N 33°50' E 132°16'1213.0
2017-Mar-27 14:33N 33°52' E 132°30'12 0.5
2017-Mar-26 15:26N 33°58' E 132°43'910.8
2017-Mar-26 14:33N 33°53' E 132°34'  
2017-Mar-23 22:34N 33°50' E 132°20'1212.1
2017-Mar-23 21:34N 33°54' E 132°34'12111.0
2017-Mar-23 10:33N 34°35' E 134°52'1212.0
2017-Mar-23 09:33N 34°36' E 135°07'1312.4
2017-Mar-23 08:33N 34°34' E 135°22'1 0.9
2017-Mar-23 07:17N 34°34' E 135°23'0 0.0
2017-Mar-23 04:29N 34°34' E 135°23'0 0.0
2017-Mar-23 03:23N 34°34' E 135°23'0 0.0
2017-Mar-23 01:17N 34°34' E 135°23'0 0.0
2017-Mar-23 00:17N 34°34' E 135°23'0 0.0
2017-Mar-22 23:29N 34°34' E 135°23'0 0.0
2017-Mar-22 19:31N 34°34' E 135°23'1111.0
2017-Mar-22 18:33N 34°35' E 135°10'12711.5
2017-Mar-22 07:32N 33°58' E 132°44'1312.8
2017-Mar-22 06:33N 33°52' E 132°30'2611.6
2017-Mar-22 04:16N 33°49' E 131°59'21 0.4
2017-Mar-20 00:31N 33°51' E 132°24'1512.8
2017-Mar-19 23:21N 33°57' E 132°40'11711.8
2017-Mar-19 13:30N 34°36' E 134°53'1111.6
2017-Mar-19 12:33N 34°36' E 135°07'1212.1
2017-Mar-19 11:33N 34°34' E 135°21'4 0.5
2017-Mar-19 04:22N 34°33' E 135°26'1 0.4
2017-Mar-19 02:33N 34°33' E 135°25'2 1.8
2017-Mar-19 01:32N 34°34' E 135°23'0 0.0
2017-Mar-19 00:31N 34°34' E 135°23'0 0.0
2017-Mar-18 22:14N 34°34' E 135°23'0 0.1
2017-Mar-18 21:31N 34°34' E 135°23'0 0.0
2017-Mar-18 20:31N 34°34' E 135°23'0 0.0
2017-Mar-18 17:31N 34°34' E 135°23'0 0.1
2017-Mar-18 16:31N 34°34' E 135°23'0 0.0
2017-Mar-18 15:25N 34°34' E 135°23'0 0.0
2017-Mar-18 14:25N 34°34' E 135°23'0 0.0
2017-Mar-18 13:19N 34°34' E 135°23'0 0.0
2017-Mar-18 12:19N 34°34' E 135°23'0 0.0
2017-Mar-18 11:25N 34°34' E 135°23'0 0.0
2017-Mar-18 10:25N 34°34' E 135°23'0 0.0
2017-Mar-18 09:31N 34°34' E 135°23'0 0.0
2017-Mar-18 07:25N 34°34' E 135°23'0 0.0
2017-Mar-18 06:25N 34°34' E 135°23'0 0.0
2017-Mar-18 01:25N 34°34' E 135°23'0 0.0
2017-Mar-18 00:31N 34°34' E 135°23'0 0.1
2017-Mar-17 21:33N 34°34' E 135°23'1212.2
2017-Mar-17 20:33N 34°34' E 135°08'  

Dump ship's entire track history